Time;durP1;ratioP1;P1;durP2;ratioP2;P2;SDS_P1;SDS_P2;PMS_P1;PMS_P2;Temp;Humidity;BMP_temperature;BMP_pressure;BME280_temperature;BME280_humidity;BME280_pressure;Samples;Min_cycle;Max_cycle;Signal;HPM_P1;HPM_P2
2020/12/13 00:00:37;;;;;;;119.32;50.25;;;;;;;1.80;98.21;100037.84;5037423;28;20163;-63
2020/12/13 00:03:04;;;;;;;120.18;48.95;;;;;;;1.75;98.40;100048.38;5039142;28;20063;-62
2020/12/13 00:05:31;;;;;;;118.63;48.05;;;;;;;1.84;98.47;100047.22;5033638;28;20243;-59
2020/12/13 00:07:57;;;;;;;116.50;47.53;;;;;;;1.90;97.75;100058.28;5035845;28;20048;-62
2020/12/13 00:10:24;;;;;;;118.30;48.53;;;;;;;1.75;97.57;100054.41;5039641;28;20056;-57
2020/12/13 00:12:51;;;;;;;124.97;50.28;;;;;;;1.84;98.28;100055.84;5035564;28;20140;-63
2020/12/13 00:15:18;;;;;;;129.50;50.83;;;;;;;1.73;98.44;100055.38;5035894;28;20049;-60
2020/12/13 00:17:47;;;;;;;128.35;50.20;;;;;;;1.77;98.60;100054.38;5031233;28;20514;-63
2020/12/13 00:20:14;;;;;;;124.38;50.30;;;;;;;1.92;98.04;100059.06;5016163;28;20059;-57
2020/12/13 00:22:41;;;;;;;124.80;50.83;;;;;;;1.89;97.77;100058.31;5035552;28;20049;-58
2020/12/13 00:25:07;;;;;;;118.00;49.38;;;;;;;1.80;98.04;100062.03;5040375;28;20053;-61
2020/12/13 00:27:35;;;;;;;131.02;51.83;;;;;;;1.93;98.08;100063.34;5044108;28;20064;-62
2020/12/13 00:30:02;;;;;;;148.23;53.35;;;;;;;2.06;98.67;100071.59;5041251;28;20057;-60
2020/12/13 00:32:29;;;;;;;129.68;50.35;;;;;;;1.82;98.21;100073.25;5022989;28;20058;-60
2020/12/13 00:34:57;;;;;;;121.57;49.47;;;;;;;1.73;98.24;100074.38;5039131;28;20136;-56
2020/12/13 00:37:25;;;;;;;128.10;51.38;;;;;;;1.84;99.08;100074.03;5036621;28;20041;-61
2020/12/13 00:39:53;;;;;;;128.50;50.72;;;;;;;1.97;98.38;100077.09;5021744;28;20049;-60
2020/12/13 00:42:20;;;;;;;129.32;51.60;;;;;;;1.94;97.62;100078.06;5034115;28;20421;-60
2020/12/13 00:44:46;;;;;;;116.80;47.10;;;;;;;1.88;97.58;100078.22;5039023;28;20116;-61
2020/12/13 00:47:13;;;;;;;125.18;51.40;;;;;;;1.80;97.95;100082.81;5034498;28;20042;-58
2020/12/13 00:49:40;;;;;;;122.40;50.95;;;;;;;1.92;97.67;100078.97;5036755;28;20144;-63
2020/12/13 00:52:07;;;;;;;121.03;49.83;;;;;;;1.77;98.08;100081.19;5009034;28;20046;-63
2020/12/13 00:54:34;;;;;;;129.27;52.97;;;;;;;1.74;98.36;100090.78;5039012;28;20668;-61
2020/12/13 00:57:01;;;;;;;123.10;49.53;;;;;;;1.93;97.96;100088.47;5037071;28;20054;-62
2020/12/13 00:59:27;;;;;;;129.30;50.75;;;;;;;1.73;98.28;100089.94;5036786;28;20046;-61
2020/12/13 01:01:54;;;;;;;128.25;52.13;;;;;;;1.85;97.51;100093.91;5032409;28;20053;-62
2020/12/13 01:04:21;;;;;;;122.00;48.60;;;;;;;1.88;97.42;100092.94;5038000;28;20488;-62
2020/12/13 01:06:48;;;;;;;132.77;51.53;;;;;;;1.84;97.52;100102.56;5036405;28;20073;-62
2020/12/13 01:09:15;;;;;;;130.57;51.95;;;;;;;1.79;97.97;100101.88;5037662;28;20053;-62
2020/12/13 01:11:42;;;;;;;132.35;49.00;;;;;;;1.80;97.77;100110.50;5037591;28;20331;-63
2020/12/13 01:14:08;;;;;;;123.70;49.95;;;;;;;1.94;97.52;100104.00;5030006;28;20057;-62
2020/12/13 01:16:35;;;;;;;126.53;49.42;;;;;;;1.93;97.99;100106.63;5033783;28;20049;-61
2020/12/13 01:19:03;;;;;;;130.02;51.35;;;;;;;1.77;98.00;100099.34;5036580;28;20148;-64
2020/12/13 01:21:30;;;;;;;120.85;47.55;;;;;;;1.88;97.96;100098.16;5033984;28;20045;-61
2020/12/13 01:23:57;;;;;;;130.50;48.85;;;;;;;1.70;97.86;100107.34;5038964;28;20061;-58
2020/12/13 01:26:24;;;;;;;134.70;51.10;;;;;;;1.68;98.98;100114.34;5019651;28;20052;-60
2020/12/13 01:28:52;;;;;;;119.57;49.65;;;;;;;1.69;99.30;100108.25;5020821;28;20150;-57
2020/12/13 01:31:20;;;;;;;120.78;51.30;;;;;;;1.88;99.00;100116.31;5040366;28;20152;-59
2020/12/13 01:33:48;;;;;;;141.45;53.08;;;;;;;1.71;99.41;100122.03;5042384;28;20351;-62
2020/12/13 01:36:22;;;;;;;140.90;51.67;;;;;;;1.76;99.19;100118.41;5036782;28;20054;-60
2020/12/13 01:38:50;;;;;;;136.88;50.47;;;;;;;1.84;99.25;100110.38;5019254;28;20073;-59
2020/12/13 01:41:17;;;;;;;134.15;51.67;;;;;;;1.82;99.21;100126.91;5037339;28;20064;-62
2020/12/13 01:43:55;;;;;;;130.07;51.92;;;;;;;1.83;99.41;100124.25;5029711;28;20049;-62
2020/12/13 01:46:22;;;;;;;138.57;56.85;;;;;;;1.67;99.94;100125.63;5021867;28;20084;-59
2020/12/13 01:48:57;;;;;;;133.25;51.17;;;;;;;1.76;100.00;100128.78;5039887;28;20050;-58
2020/12/13 01:51:49;;;;;;;138.48;52.17;;;;;;;1.67;100.00;100136.00;5021654;28;20152;-62
2020/12/13 01:54:15;;;;;;;133.70;51.40;;;;;;;1.82;100.00;100138.13;5041374;28;20053;-62
2020/12/13 01:56:46;;;;;;;119.57;50.78;;;;;;;1.80;100.00;100141.66;5023187;28;20095;-59
2020/12/13 01:59:15;;;;;;;138.98;51.42;;;;;;;1.77;100.00;100140.00;5035154;28;20067;-62
2020/12/13 02:01:46;;;;;;;130.65;51.75;;;;;;;1.81;100.00;100139.03;5038830;28;20076;-61
2020/12/13 02:04:15;;;;;;;123.82;49.40;;;;;;;1.95;100.00;100139.44;5018710;28;20068;-61
2020/12/13 02:06:42;;;;;;;125.88;50.70;;;;;;;1.94;99.58;100145.53;5018715;28;20317;-58
2020/12/13 02:09:09;;;;;;;122.05;49.55;;;;;;;1.95;99.70;100136.84;5040980;28;20209;-60
2020/12/13 02:11:36;;;;;;;121.38;49.45;;;;;;;1.78;99.75;100129.56;5042373;28;20057;-62
2020/12/13 02:14:04;;;;;;;131.82;50.63;;;;;;;1.87;99.92;100143.16;5034623;28;20044;-59
2020/12/13 02:16:31;;;;;;;123.60;50.08;;;;;;;1.91;100.00;100140.44;5037332;28;20097;-62
2020/12/13 02:18:58;;;;;;;137.93;53.38;;;;;;;1.90;100.00;100140.50;5040717;28;20056;-60
2020/12/13 02:21:25;;;;;;;127.80;48.35;;;;;;;1.81;99.63;100141.63;5018189;28;20056;-60
2020/12/13 02:23:52;;;;;;;125.43;48.90;;;;;;;1.89;99.72;100143.97;5041583;28;20054;-61
2020/12/13 02:26:18;;;;;;;133.00;51.55;;;;;;;1.92;99.91;100147.31;5039614;28;20067;-61
2020/12/13 02:28:46;;;;;;;121.22;50.25;;;;;;;1.96;99.21;100143.72;5019721;28;20045;-63
2020/12/13 02:31:13;;;;;;;124.45;48.15;;;;;;;1.80;99.31;100139.06;5037693;28;20395;-61
2020/12/13 02:33:41;;;;;;;126.90;48.65;;;;;;;1.75;100.00;100142.63;5037380;28;20061;-61
2020/12/13 02:36:08;;;;;;;124.90;51.72;;;;;;;1.74;100.00;100145.28;5037123;28;20624;-62
2020/12/13 02:38:36;;;;;;;130.95;50.10;;;;;;;1.72;100.00;100137.56;5037279;28;20073;-62
2020/12/13 02:41:02;;;;;;;117.05;47.85;;;;;;;1.99;99.96;100148.00;5022792;28;20052;-59
2020/12/13 02:43:29;;;;;;;117.85;48.20;;;;;;;1.91;99.48;100142.19;5033203;28;20140;-60
2020/12/13 02:45:56;;;;;;;125.82;49.83;;;;;;;1.92;99.50;100143.88;5039704;28;20068;-58
2020/12/13 02:48:23;;;;;;;125.03;48.88;;;;;;;2.05;99.14;100136.56;5037107;28;20798;-61
2020/12/13 02:50:50;;;;;;;121.40;50.65;;;;;;;2.33;98.65;100146.91;5039505;28;20839;-60
2020/12/13 02:53:16;;;;;;;121.28;46.42;;;;;;;2.33;97.59;100147.75;5036294;28;20044;-60
2020/12/13 02:55:43;;;;;;;119.70;48.70;;;;;;;2.30;97.14;100153.06;5037539;28;20060;-60
2020/12/13 02:58:10;;;;;;;115.93;48.05;;;;;;;2.08;98.07;100147.69;5035395;28;20044;-62
2020/12/13 03:00:37;;;;;;;123.35;48.47;;;;;;;1.97;98.78;100157.56;5039820;28;20056;-59
2020/12/13 03:03:03;;;;;;;126.80;49.33;;;;;;;1.98;98.90;100156.66;5036467;28;20358;-59
2020/12/13 03:05:30;;;;;;;123.93;48.15;;;;;;;1.96;99.10;100155.88;5036110;28;20048;-59
2020/12/13 03:07:58;;;;;;;120.40;51.38;;;;;;;1.98;99.42;100149.75;5021240;28;20053;-56
2020/12/13 03:10:25;;;;;;;120.22;48.22;;;;;;;1.93;99.16;100159.38;5040604;28;20060;-61
2020/12/13 03:12:52;;;;;;;123.25;47.70;;;;;;;2.10;98.18;100163.22;5034571;28;20358;-57
2020/12/13 03:15:19;;;;;;;131.82;48.03;;;;;;;2.09;98.43;100170.16;5036636;28;20061;-61
2020/12/13 03:17:46;;;;;;;116.47;46.78;;;;;;;2.14;97.85;100172.63;5012769;28;20049;-60
2020/12/13 03:20:12;;;;;;;119.72;50.20;;;;;;;2.16;97.22;100176.88;5037360;28;20052;-60
2020/12/13 03:22:39;;;;;;;126.07;48.00;;;;;;;2.19;97.49;100183.69;5030987;28;20514;-61
2020/12/13 03:25:07;;;;;;;117.05;46.90;;;;;;;2.17;97.52;100181.16;5036223;28;20055;-60
2020/12/13 03:27:33;;;;;;;115.72;44.88;;;;;;;2.24;96.86;100179.22;5036453;28;20091;-61
2020/12/13 03:30:00;;;;;;;107.85;45.72;;;;;;;2.17;96.97;100180.31;5036649;28;20076;-61
2020/12/13 03:32:27;;;;;;;126.30;50.63;;;;;;;2.14;96.96;100185.59;5034015;28;20060;-62
2020/12/13 03:34:58;;;;;;;105.68;45.35;;;;;;;2.13;97.20;100178.72;5040557;28;20136;-60
2020/12/13 03:37:25;;;;;;;132.15;48.50;;;;;;;2.07;97.29;100186.66;5038283;28;20610;-63
2020/12/13 03:39:52;;;;;;;123.47;48.60;;;;;;;2.12;97.86;100183.06;5037252;28;20057;-62
2020/12/13 03:42:19;;;;;;;122.63;47.30;;;;;;;2.01;97.31;100185.13;5017484;28;20172;-61
2020/12/13 03:44:45;;;;;;;122.15;48.90;;;;;;;2.07;97.33;100190.13;5040673;28;20064;-62
2020/12/13 03:47:12;;;;;;;125.93;49.65;;;;;;;1.96;97.90;100195.66;5036030;28;20045;-61
2020/12/13 03:49:39;;;;;;;119.85;46.72;;;;;;;1.94;98.14;100192.25;5037194;28;20063;-61
2020/12/13 03:52:06;;;;;;;121.18;48.97;;;;;;;1.90;98.32;100195.00;5033668;28;20546;-59
2020/12/13 03:54:32;;;;;;;125.30;49.67;;;;;;;1.90;98.74;100190.66;5041117;28;20112;-62
2020/12/13 03:56:59;;;;;;;131.20;49.60;;;;;;;1.90;98.84;100188.06;5038736;28;20119;-60
2020/12/13 03:59:26;;;;;;;126.30;48.42;;;;;;;1.95;99.38;100187.91;5037599;28;20060;-63
2020/12/13 04:01:53;;;;;;;132.77;52.00;;;;;;;2.16;98.04;100194.19;5036304;28;20052;-61
2020/12/13 04:04:20;;;;;;;136.77;50.40;;;;;;;2.08;97.67;100198.78;5020215;28;20636;-60
2020/12/13 04:06:47;;;;;;;124.60;49.17;;;;;;;2.03;98.26;100201.53;5035591;28;20668;-59
2020/12/13 04:09:13;;;;;;;139.77;52.03;;;;;;;1.87;98.96;100200.28;5052957;23;20060;-62
2020/12/13 04:11:40;;;;;;;131.90;50.60;;;;;;;1.88;99.30;100205.41;5045046;28;20152;-59
2020/12/13 04:14:07;;;;;;;127.45;48.97;;;;;;;1.93;99.00;100205.28;5045474;28;20053;-63
2020/12/13 04:16:33;;;;;;;135.85;51.53;;;;;;;1.94;99.13;100209.59;5047209;28;20056;-63
2020/12/13 04:19:00;;;;;;;128.27;51.10;;;;;;;1.94;99.10;100215.63;5045659;28;20132;-58
2020/12/13 04:21:27;;;;;;;141.27;53.10;;;;;;;1.99;98.51;100205.94;5019753;28;20036;-61
2020/12/13 04:23:54;;;;;;;147.38;53.22;;;;;;;1.88;98.89;100201.97;5037478;28;20053;-58
2020/12/13 04:26:21;;;;;;;141.95;52.63;;;;;;;1.94;98.89;100209.59;5042492;28;20057;-61
2020/12/13 04:28:47;;;;;;;136.30;50.75;;;;;;;2.06;99.10;100206.59;5022358;28;20049;-61
2020/12/13 04:31:14;;;;;;;148.77;53.25;;;;;;;2.11;98.66;100209.06;5023137;28;20045;-60
2020/12/13 04:33:41;;;;;;;138.32;54.30;;;;;;;2.09;97.75;100216.06;5015844;28;20069;-62
2020/12/13 04:36:07;;;;;;;149.65;54.42;;;;;;;1.87;98.62;100221.03;5021227;28;20041;-61
2020/12/13 04:38:34;;;;;;;142.88;54.17;;;;;;;2.01;98.91;100222.31;5034919;28;20048;-60
2020/12/13 04:41:01;;;;;;;135.15;50.58;;;;;;;1.93;98.18;100234.66;5039688;28;20068;-59
2020/12/13 04:43:29;;;;;;;140.88;51.38;;;;;;;1.96;99.20;100236.34;5031811;28;20049;-57
2020/12/13 04:45:56;;;;;;;148.90;55.13;;;;;;;1.97;99.20;100244.06;5038704;28;20410;-60
2020/12/13 04:48:23;;;;;;;144.93;53.65;;;;;;;2.20;98.72;100239.94;5021845;28;20127;-61
2020/12/13 04:50:51;;;;;;;138.98;50.65;;;;;;;2.06;98.20;100237.75;5034902;28;20547;-62
2020/12/13 04:53:18;;;;;;;146.10;51.15;;;;;;;1.88;99.28;100238.31;5036331;28;20052;-62
2020/12/13 04:55:53;;;;;;;132.00;50.63;;;;;;;1.97;99.13;100244.06;5042455;28;20051;-58
2020/12/13 04:58:22;;;;;;;136.70;50.63;;;;;;;1.92;98.93;100245.09;5022200;28;20530;-60
2020/12/13 05:00:56;;;;;;;128.80;48.20;;;;;;;2.07;98.85;100243.78;5043842;28;20055;-61
2020/12/13 05:03:24;;;;;;;128.85;49.55;;;;;;;2.20;97.77;100240.78;5045064;28;20053;-60
2020/12/13 05:05:51;;;;;;;128.45;50.97;;;;;;;2.23;97.28;100243.28;5018839;28;20057;-60
2020/12/13 05:08:18;;;;;;;123.93;48.35;;;;;;;2.24;96.57;100242.38;5042787;28;20056;-60
2020/12/13 05:10:45;;;;;;;134.07;50.83;;;;;;;2.06;97.55;100252.50;5043756;28;20045;-61
2020/12/13 05:13:12;;;;;;;128.13;47.72;;;;;;;2.06;97.58;100252.50;5033992;28;20049;-61
2020/12/13 05:15:39;;;;;;;128.60;50.10;;;;;;;2.03;98.25;100259.47;5045965;28;20049;-62
2020/12/13 05:18:06;;;;;;;132.70;52.17;;;;;;;2.22;97.54;100249.38;5042722;28;20336;-59
2020/12/13 05:20:33;;;;;;;138.40;51.70;;;;;;;2.24;97.50;100247.59;5046590;28;20144;-62
2020/12/13 05:23:01;;;;;;;136.43;51.72;;;;;;;2.10;97.65;100244.56;5041927;28;20049;-60
2020/12/13 05:25:40;;;;;;;134.20;47.47;;;;;;;2.16;97.73;100257.38;5045495;28;20534;-62
2020/12/13 05:28:09;;;;;;;136.18;51.00;;;;;;;2.26;97.42;100261.38;5043532;28;20148;-62
2020/12/13 05:30:41;;;;;;;133.80;46.80;;;;;;;2.14;97.70;100258.31;5013850;28;20091;-60
2020/12/13 05:33:15;;;;;;;132.23;50.45;;;;;;;2.06;98.56;100260.28;5044490;28;20152;-60
2020/12/13 05:35:41;;;;;;;137.38;50.13;;;;;;;1.95;98.94;100264.03;5051968;28;20080;-60
2020/12/13 05:38:10;;;;;;;135.85;50.95;;;;;;;2.17;98.25;100271.22;5051599;28;20045;-58
2020/12/13 05:40:36;;;;;;;141.55;49.33;;;;;;;2.08;98.05;100272.34;5046623;28;20057;-62
2020/12/13 05:43:19;;;;;;;137.95;49.88;;;;;;;2.04;98.60;100278.50;4999631;28;20538;-61
2020/12/13 05:48:37;;;;;;;134.68;50.72;;;;;;;2.07;98.21;100277.53;5042104;28;20426;-61
2020/12/13 05:53:32;;;;;;;123.57;45.83;;;;;;;2.16;98.32;100274.69;5038984;28;20041;-59
2020/12/13 05:55:59;;;;;;;127.95;49.55;;;;;;;2.08;98.35;100271.47;5021618;28;20152;-62
2020/12/13 05:58:26;;;;;;;133.65;47.65;;;;;;;1.98;98.67;100268.28;5039304;28;20042;-62
2020/12/13 06:00:55;;;;;;;126.82;46.50;;;;;;;2.00;98.76;100269.09;5043046;28;20060;-61
2020/12/13 06:03:36;;;;;;;128.55;47.95;;;;;;;2.15;98.06;100278.19;5037252;28;20065;-61
2020/12/13 06:06:08;;;;;;;126.78;47.85;;;;;;;2.00;98.33;100272.53;5042484;28;20089;-59
2020/12/13 06:09:05;;;;;;;127.75;47.45;;;;;;;2.01;98.47;100278.59;5025540;28;20072;-61
2020/12/13 06:11:37;;;;;;;135.68;49.20;;;;;;;1.89;98.94;100281.53;5025504;28;20064;-61
2020/12/13 06:14:08;;;;;;;137.25;47.83;;;;;;;1.84;99.07;100286.00;5036068;28;20073;-61
2020/12/13 06:16:35;;;;;;;128.60;48.13;;;;;;;1.93;98.75;100283.16;5011722;28;20383;-60
2020/12/13 06:19:07;;;;;;;130.93;48.92;;;;;;;1.95;98.81;100290.00;5034715;28;20483;-60
2020/12/13 06:21:34;;;;;;;122.75;47.13;;;;;;;1.91;98.55;100301.38;4989108;28;20141;-61
2020/12/13 06:24:01;;;;;;;129.02;46.92;;;;;;;1.83;99.01;100302.47;5037258;28;20048;-59
2020/12/13 06:26:28;;;;;;;119.80;46.72;;;;;;;1.89;99.40;100300.56;5040145;28;20053;-62
2020/12/13 06:28:56;;;;;;;122.63;47.55;;;;;;;2.02;98.93;100303.66;5021517;28;20091;-61
2020/12/13 06:31:23;;;;;;;122.95;45.45;;;;;;;1.96;98.62;100303.84;5042697;28;20083;-60
2020/12/13 06:33:50;;;;;;;133.68;49.67;;;;;;;1.98;98.52;100304.63;5036388;28;20061;-60
2020/12/13 06:36:22;;;;;;;121.47;46.08;;;;;;;1.89;98.68;100299.69;5020775;28;20390;-60
2020/12/13 06:38:52;;;;;;;118.57;47.70;;;;;;;1.93;98.61;100298.72;5037659;28;20132;-62
2020/12/13 06:41:21;;;;;;;109.90;44.65;;;;;;;2.05;98.35;100300.13;5020379;28;20061;-58
2020/12/13 06:43:54;;;;;;;105.20;44.85;;;;;;;2.18;96.94;100306.66;5033902;28;20097;-59
2020/12/13 06:46:23;;;;;;;107.57;42.58;;;;;;;2.27;96.86;100309.84;5034250;28;20057;-61
2020/12/13 06:48:50;;;;;;;102.93;42.08;;;;;;;2.24;96.80;100315.09;5040220;28;20048;-60
2020/12/13 06:51:28;;;;;;;97.80;41.72;;;;;;;2.17;96.72;100317.94;5044019;28;20087;-62
2020/12/13 06:53:56;;;;;;;102.82;44.50;;;;;;;2.07;97.40;100317.34;5021362;28;20058;-58
2020/12/13 06:56:22;;;;;;;104.60;43.17;;;;;;;2.25;96.45;100329.81;5040605;28;20058;-60
2020/12/13 06:59:00;;;;;;;99.57;43.38;;;;;;;2.20;96.72;100339.47;5037154;28;20067;-58
2020/12/13 07:01:28;;;;;;;95.03;41.65;;;;;;;2.15;97.06;100343.09;5038694;28;20049;-59
2020/12/13 07:03:58;;;;;;;92.80;39.97;;;;;;;2.06;97.56;100344.22;5035779;28;20045;-58
2020/12/13 07:06:43;;;;;;;96.65;40.92;;;;;;;2.26;97.04;100348.84;5011985;28;20050;-62
2020/12/13 07:09:12;;;;;;;105.85;40.78;;;;;;;2.37;96.72;100346.78;5043908;28;20072;-60
2020/12/13 07:11:44;;;;;;;92.35;40.88;;;;;;;2.45;95.46;100350.00;5035663;28;20057;-61
2020/12/13 07:14:15;;;;;;;99.45;41.58;;;;;;;2.37;95.57;100354.56;5037722;28;20144;-60
2020/12/13 07:16:45;;;;;;;95.07;41.63;;;;;;;2.43;95.95;100354.41;5036279;28;20056;-60
2020/12/13 07:19:14;;;;;;;99.72;41.00;;;;;;;2.60;94.61;100359.06;5018468;28;20037;-60
2020/12/13 07:21:42;;;;;;;91.28;39.38;;;;;;;2.45;94.97;100368.19;5044525;28;20064;-60
2020/12/13 07:24:09;;;;;;;91.45;40.00;;;;;;;2.60;95.08;100371.22;5038131;28;20044;-63
2020/12/13 07:26:38;;;;;;;105.57;42.97;;;;;;;2.45;94.93;100367.34;5037560;28;20085;-61
2020/12/13 07:29:14;;;;;;;99.35;42.13;;;;;;;2.31;95.58;100374.69;5024804;28;20363;-61
2020/12/13 07:31:44;;;;;;;96.57;40.47;;;;;;;2.27;96.32;100377.34;5034312;28;20259;-61
2020/12/13 07:34:11;;;;;;;99.05;41.78;;;;;;;2.30;96.13;100381.63;5042240;28;20041;-59
2020/12/13 07:36:38;;;;;;;90.82;41.25;;;;;;;2.28;95.87;100380.81;5045639;28;20061;-63
2020/12/13 07:39:06;;;;;;;99.90;45.05;;;;;;;2.18;96.41;100377.63;5041566;28;20580;-65
2020/12/13 07:41:33;;;;;;;96.90;42.42;;;;;;;2.20;96.57;100386.22;5040479;28;20053;-61
2020/12/13 07:44:04;;;;;;;94.38;41.90;;;;;;;2.28;96.00;100380.81;5037357;28;20037;-61
2020/12/13 07:46:32;;;;;;;87.22;40.25;;;;;;;2.34;95.72;100385.81;5038159;28;20053;-63
2020/12/13 07:49:22;;;;;;;94.10;42.97;;;;;;;2.18;95.98;100390.63;5019423;28;20041;-60
2020/12/13 07:51:51;;;;;;;91.60;41.15;;;;;;;2.22;96.41;100391.38;5016755;28;20060;-62
2020/12/13 07:54:23;;;;;;;90.32;41.50;;;;;;;2.29;96.27;100395.50;5041192;28;20106;-61
2020/12/13 07:56:51;;;;;;;94.90;39.45;;;;;;;2.37;95.52;100406.50;5040903;28;20588;-61
2020/12/13 07:59:19;;;;;;;92.50;40.45;;;;;;;2.33;95.65;100404.06;5016549;28;20068;-61
2020/12/13 08:01:47;;;;;;;96.85;41.88;;;;;;;2.25;96.01;100410.34;5037798;28;20424;-59
2020/12/13 08:04:15;;;;;;;99.55;41.95;;;;;;;2.31;96.24;100414.50;5021536;28;20478;-61
2020/12/13 08:06:43;;;;;;;86.57;41.78;;;;;;;2.33;95.74;100409.25;5037672;28;20056;-60
2020/12/13 08:09:13;;;;;;;87.65;40.75;;;;;;;2.28;95.71;100417.16;5037806;28;20049;-61
2020/12/13 08:11:41;;;;;;;97.05;43.67;;;;;;;2.26;96.02;100414.63;5041018;28;20310;-63
2020/12/13 08:14:08;;;;;;;94.65;40.97;;;;;;;2.40;95.36;100421.19;5039028;28;20051;-61
2020/12/13 08:16:36;;;;;;;92.10;42.88;;;;;;;2.36;95.46;100424.75;5036578;28;20136;-63
2020/12/13 08:19:12;;;;;;;102.30;43.20;;;;;;;2.46;95.16;100427.03;5038391;28;20044;-61
2020/12/13 08:21:53;;;;;;;88.47;40.40;;;;;;;2.49;94.73;100423.50;5016568;28;20048;-61
2020/12/13 08:24:20;;;;;;;86.43;39.38;;;;;;;2.26;95.50;100430.22;5020521;28;20270;-62
2020/12/13 08:26:47;;;;;;;89.13;40.95;;;;;;;2.37;95.90;100435.09;5006900;28;20430;-63
2020/12/13 08:29:14;;;;;;;92.15;41.08;;;;;;;2.36;95.66;100445.53;5023580;28;20055;-62
2020/12/13 08:31:42;;;;;;;88.88;41.90;;;;;;;2.48;94.95;100455.59;5016993;28;20077;-59
2020/12/13 08:34:08;;;;;;;91.85;42.70;;;;;;;2.47;94.72;100451.25;5016196;28;20045;-61
2020/12/13 08:36:35;;;;;;;84.18;39.47;;;;;;;2.44;95.33;100459.16;5042119;28;20049;-60
2020/12/13 08:39:10;;;;;;;81.85;38.30;;;;;;;2.57;94.89;100457.03;5023098;28;20107;-59
2020/12/13 08:41:47;;;;;;;89.00;40.97;;;;;;;2.46;94.99;100454.75;5024866;28;20544;-62
2020/12/13 08:44:31;;;;;;;94.72;40.47;;;;;;;2.40;95.25;100457.56;5034952;28;20113;-63
2020/12/13 08:47:01;;;;;;;87.05;39.03;;;;;;;2.42;95.52;100461.78;5043413;28;20056;-62
2020/12/13 08:49:31;;;;;;;91.13;40.88;;;;;;;2.47;94.92;100459.91;5027969;28;20076;-65
2020/12/13 08:52:33;;;;;;;91.78;40.78;;;;;;;2.62;93.92;100463.00;5049008;28;20049;-60
2020/12/13 08:55:04;;;;;;;83.40;38.70;;;;;;;2.44;94.71;100465.22;5053575;28;20095;-62
2020/12/13 08:57:45;;;;;;;89.28;40.13;;;;;;;2.55;93.95;100477.88;5045175;28;20053;-59
2020/12/13 09:00:14;;;;;;;83.40;38.55;;;;;;;2.48;94.41;100471.19;5043697;28;20498;-59
2020/12/13 09:03:00;;;;;;;82.00;39.42;;;;;;;2.43;95.33;100475.63;5044701;28;20059;-58
2020/12/13 09:05:34;;;;;;;85.10;39.95;;;;;;;2.60;94.44;100480.34;5031684;28;20061;-60
2020/12/13 09:08:01;;;;;;;92.25;41.22;;;;;;;2.72;93.58;100485.22;5003879;28;20049;-60
2020/12/13 09:10:38;;;;;;;79.70;38.80;;;;;;;2.57;93.84;100485.63;5040155;28;20107;-60
2020/12/13 09:13:08;;;;;;;83.05;37.50;;;;;;;2.52;94.66;100496.16;5021815;28;20056;-61
2020/12/13 09:15:36;;;;;;;80.47;37.70;;;;;;;2.63;94.04;100490.69;5024801;28;20057;-58
2020/12/13 09:18:03;;;;;;;77.57;37.10;;;;;;;2.78;94.02;100483.28;5011976;28;20108;-61
2020/12/13 09:20:32;;;;;;;83.32;36.92;;;;;;;2.94;92.06;100488.91;5043590;28;20065;-60
2020/12/13 09:23:13;;;;;;;80.63;38.00;;;;;;;3.00;92.05;100482.66;5037321;28;20144;-61
2020/12/13 09:25:41;;;;;;;78.35;38.50;;;;;;;2.97;91.66;100495.72;5021958;28;20076;-59
2020/12/13 09:28:09;;;;;;;74.30;35.50;;;;;;;2.84;92.21;100499.59;5032906;28;20145;-61
2020/12/13 09:30:36;;;;;;;80.85;39.22;;;;;;;2.87;92.30;100502.94;5011720;28;20041;-62
2020/12/13 09:33:03;;;;;;;82.72;37.95;;;;;;;2.85;92.28;100507.38;5020159;28;20059;-60
2020/12/13 09:35:32;;;;;;;81.80;37.90;;;;;;;3.12;91.55;100507.44;5038735;28;20492;-62
2020/12/13 09:38:04;;;;;;;73.30;35.38;;;;;;;3.27;89.55;100502.63;5043383;28;20406;-60
2020/12/13 09:40:32;;;;;;;67.18;33.60;;;;;;;3.29;89.13;100506.03;5025954;28;20430;-60
2020/12/13 09:43:00;;;;;;;76.47;35.05;;;;;;;3.34;89.24;100503.28;5039579;28;20052;-61
2020/12/13 09:45:27;;;;;;;68.32;33.90;;;;;;;3.28;89.35;100501.72;5043130;28;20049;-60
2020/12/13 09:47:56;;;;;;;73.20;37.50;;;;;;;3.33;89.25;100498.13;5041087;28;20076;-62
2020/12/13 09:50:28;;;;;;;75.25;36.75;;;;;;;3.37;89.95;100502.31;5022371;28;20045;-60
2020/12/13 09:52:55;;;;;;;64.43;35.38;;;;;;;3.41;89.35;100499.59;5035380;28;20509;-60
2020/12/13 09:55:21;;;;;;;73.28;36.80;;;;;;;3.41;89.33;100499.59;5024784;28;20053;-60
2020/12/13 09:57:48;;;;;;;67.55;34.60;;;;;;;3.31;89.56;100500.78;5040211;28;20106;-61
2020/12/13 10:00:15;;;;;;;67.53;34.55;;;;;;;3.33;88.44;100504.16;5040216;28;20195;-62
2020/12/13 10:02:43;;;;;;;66.97;35.28;;;;;;;3.44;89.02;100503.84;5041877;28;20338;-60
2020/12/13 10:05:39;;;;;;;64.47;33.47;;;;;;;3.50;88.44;100501.03;5035013;28;20421;-62
2020/12/13 10:10:49;;;;;;;62.92;33.42;;;;;;;3.31;89.34;100500.78;5046250;22;20359;31
2020/12/13 10:13:16;;;;;;;71.22;35.97;;;;;;;3.51;88.87;100497.53;4988150;28;20046;-77
2020/12/13 10:15:43;;;;;;;67.80;34.95;;;;;;;3.39;88.54;100482.34;4988440;28;20064;-75
2020/12/13 10:18:13;;;;;;;65.00;34.33;;;;;;;3.28;89.26;100490.44;4983909;28;20052;-75
2020/12/13 10:20:41;;;;;;;62.15;34.20;;;;;;;3.28;90.11;100486.09;4982131;28;20051;-76
2020/12/13 10:23:08;;;;;;;66.40;33.92;;;;;;;3.47;88.66;100488.16;4961660;28;20054;-76
2020/12/13 10:25:36;;;;;;;69.47;33.80;;;;;;;3.51;88.26;100497.53;4997360;28;20046;-76
2020/12/13 10:28:02;;;;;;;67.90;34.95;;;;;;;3.59;88.35;100497.28;4983467;28;20058;-75
2020/12/13 10:30:29;;;;;;;64.35;33.78;;;;;;;3.60;89.29;100501.59;4993721;28;20046;-77
2020/12/13 10:32:57;;;;;;;67.15;35.10;;;;;;;3.49;89.18;100504.56;4995954;28;20416;-75
2020/12/13 10:35:24;;;;;;;63.83;34.97;;;;;;;3.69;89.28;100499.56;4987882;28;20088;-76
2020/12/13 10:37:51;;;;;;;64.88;34.22;;;;;;;3.69;89.17;100510.00;4980024;28;20057;-77
2020/12/13 10:40:18;;;;;;;62.00;34.08;;;;;;;3.75;89.14;100508.94;5002728;28;20064;-76
2020/12/13 10:42:45;;;;;;;60.58;32.70;;;;;;;3.77;87.23;100509.72;4984204;28;20054;-77
2020/12/13 10:45:12;;;;;;;60.22;31.55;;;;;;;3.85;87.46;100510.31;5005984;28;20040;-76
2020/12/13 10:47:40;;;;;;;67.95;35.67;;;;;;;3.77;88.02;100507.13;4988881;28;20072;-75
2020/12/13 10:50:09;;;;;;;60.92;33.85;;;;;;;3.79;87.35;100513.13;5004211;28;20061;-76
2020/12/13 10:52:36;;;;;;;65.90;35.05;;;;;;;3.88;86.73;100514.59;4997944;28;20083;-77
2020/12/13 10:55:03;;;;;;;61.15;32.22;;;;;;;3.78;87.50;100519.22;4987575;28;20064;-76
2020/12/13 10:57:30;;;;;;;62.22;34.10;;;;;;;3.97;87.37;100520.34;4989663;28;20073;-75
2020/12/13 10:59:57;;;;;;;62.47;33.92;;;;;;;4.02;86.37;100521.03;4984741;28;20045;-77
2020/12/13 11:02:23;;;;;;;59.90;32.17;;;;;;;3.89;87.16;100521.50;5003960;28;20590;-77
2020/12/13 11:04:50;;;;;;;58.42;32.88;;;;;;;3.96;86.36;100522.97;5001291;28;20054;-77
2020/12/13 11:07:17;;;;;;;61.50;33.03;;;;;;;4.09;86.11;100521.66;5004007;28;20436;-76
2020/12/13 11:09:44;;;;;;;64.40;34.17;;;;;;;4.07;86.48;100511.31;4988113;28;20078;-76
2020/12/13 11:12:11;;;;;;;64.00;35.33;;;;;;;4.10;86.61;100512.97;5001152;28;20061;-76
2020/12/13 11:14:38;;;;;;;64.55;35.72;;;;;;;4.17;86.40;100517.06;4974947;28;20062;-77
2020/12/13 11:17:05;;;;;;;68.70;35.85;;;;;;;4.32;85.25;100518.25;5004046;28;20077;-77
2020/12/13 11:19:31;;;;;;;72.47;39.33;;;;;;;4.40;84.93;100513.63;4967871;28;20046;-77
2020/12/13 11:21:59;;;;;;;74.13;36.60;;;;;;;4.19;86.32;100530.03;5000416;28;20062;-77
2020/12/13 11:24:26;;;;;;;69.25;37.88;;;;;;;4.38;85.34;100518.06;4975428;28;20073;-76
2020/12/13 11:26:52;;;;;;;78.28;41.13;;;;;;;4.44;84.38;100525.66;4995801;28;20049;-76